Главная страница
METAR-TAF:

METAR-TAF

Аэропорты :

Lycksele, Швеция

широта: 64-32-51N, долгота: 018-43-03E, высота над уровнем моря: 211 м

Текущие метеонаблюдения

Эта сводка был подготовлена 38 минут назад, в 18:50 UTC
Ветер 2 Узел переменных направлений
Температура 11°C
Влажность 94%
Давление 1011 hPa
Видимость 10 км и более

METAR: ESNL 131850Z AUTO VRB02KT 9999 NCD 11/10 Q1011

Время: 21:28 (19:28 UTC)


TAF: отсутствует

Метеонаблюдения и прогнозы для более 4000 аэропортов (сводки METAR и TAF).

Имеющиеся станции представлены на карте желтыми и красными точками.

Чтобы увидеть название станции, наведите на нее мышь.

Затем щелкните, чтобы увидеть метеонаблюдения и метеопрогнозы.

Управление картой: чтобы увеличить масштаб, щелкните зеленые кнопки с черным крестиком; чтобы уменьшить масштаб, щелкните зеленую кнопку с тире; для просмотра соседних карт щелкайте зеленые стрелки.


METAR-TAF: